createdAt,value
2018-12-24T00:00:33.549Z,0.00
2018-12-24T00:01:33.538Z,0.00
2018-12-24T00:02:33.547Z,0.00
2018-12-24T00:03:33.547Z,0.00
2018-12-24T00:04:33.499Z,0.00
2018-12-24T00:05:33.496Z,0.00
2018-12-24T00:06:33.482Z,0.00
2018-12-24T00:07:33.472Z,0.00
2018-12-24T00:08:33.462Z,0.00
2018-12-24T00:09:33.468Z,0.00
2018-12-24T00:10:33.456Z,0.00
2018-12-24T00:11:33.426Z,0.00
2018-12-24T00:12:33.413Z,0.00
2018-12-24T00:13:33.412Z,0.00
2018-12-24T00:14:33.398Z,0.00
2018-12-24T00:15:33.404Z,0.00
2018-12-24T00:16:33.371Z,0.00
2018-12-24T00:17:33.365Z,0.00
2018-12-24T00:18:33.362Z,0.00
2018-12-24T00:19:35.327Z,0.00
2018-12-24T00:20:33.353Z,0.00
2018-12-24T00:21:33.316Z,0.00
2018-12-24T00:22:33.323Z,0.00
2018-12-24T00:23:33.297Z,0.00
2018-12-24T00:24:33.285Z,0.00
2018-12-24T00:25:33.297Z,0.00
2018-12-24T00:26:33.272Z,0.00
2018-12-24T00:27:33.258Z,0.00
2018-12-24T00:28:33.249Z,0.00
2018-12-24T00:29:33.230Z,0.00
2018-12-24T00:30:33.238Z,0.00
2018-12-24T00:31:33.231Z,0.00
2018-12-24T00:32:33.206Z,0.00
2018-12-24T00:33:33.188Z,0.00
2018-12-24T00:34:33.215Z,0.00
2018-12-24T00:35:33.186Z,0.00
2018-12-24T00:36:33.157Z,0.00
2018-12-24T00:37:33.180Z,0.00
2018-12-24T00:38:33.138Z,0.00
2018-12-24T00:39:33.129Z,0.00
2018-12-24T00:40:33.121Z,0.00
2018-12-24T00:41:33.129Z,0.00
2018-12-24T00:42:33.094Z,0.00
2018-12-24T00:43:33.112Z,0.00
2018-12-24T00:44:33.071Z,0.00
2018-12-24T00:45:33.164Z,0.00
2018-12-24T00:46:33.063Z,0.00
2018-12-24T00:47:33.069Z,0.00
2018-12-24T00:48:33.028Z,0.00
2018-12-24T00:49:33.026Z,0.00
2018-12-24T00:50:33.012Z,0.00
2018-12-24T00:51:33.002Z,0.00
2018-12-24T00:52:33.000Z,0.00
2018-12-24T00:53:33.001Z,0.00
2018-12-24T00:54:32.972Z,0.00
2018-12-24T00:55:32.954Z,0.00
2018-12-24T00:56:32.956Z,0.00
2018-12-24T00:57:32.938Z,0.00
2018-12-24T00:58:32.938Z,0.00
2018-12-24T00:59:32.936Z,0.00
2018-12-24T01:00:32.942Z,0.00
2018-12-24T01:01:33.000Z,0.00
2018-12-24T01:02:32.892Z,0.00
2018-12-24T01:03:32.876Z,0.00
2018-12-24T01:04:32.880Z,0.00
2018-12-24T01:05:32.989Z,0.00
2018-12-24T01:06:32.839Z,0.00
2018-12-24T01:07:32.835Z,0.00
2018-12-24T01:08:32.828Z,0.00
2018-12-24T01:09:32.845Z,0.00
2018-12-24T01:10:32.801Z,0.00
2018-12-24T01:11:32.833Z,0.00
2018-12-24T01:12:32.776Z,0.00
2018-12-24T01:13:32.773Z,0.00
2018-12-24T01:14:32.755Z,0.00
2018-12-24T01:15:32.740Z,0.00
2018-12-24T01:16:32.759Z,0.00
2018-12-24T01:17:32.723Z,0.00
2018-12-24T01:18:32.724Z,0.00
2018-12-24T01:19:32.701Z,0.00
2018-12-24T01:20:33.882Z,0.00
2018-12-24T01:21:32.705Z,0.00
2018-12-24T01:22:32.672Z,0.00
2018-12-24T01:23:32.685Z,0.00
2018-12-24T01:24:32.677Z,0.00
2018-12-24T01:25:32.647Z,0.00
2018-12-24T01:26:32.621Z,0.00
2018-12-24T01:27:32.610Z,0.00
2018-12-24T01:28:32.615Z,0.00
2018-12-24T01:29:32.602Z,0.00
2018-12-24T01:30:32.605Z,0.00
2018-12-24T01:31:32.600Z,0.00
2018-12-24T01:32:32.563Z,0.00
2018-12-24T01:33:32.579Z,0.00
2018-12-24T01:34:32.548Z,0.00
2018-12-24T01:35:33.050Z,0.00
2018-12-24T01:36:32.520Z,0.00
2018-12-24T01:37:32.533Z,0.00
2018-12-24T01:38:32.493Z,0.00
2018-12-24T01:39:32.499Z,0.00
2018-12-24T01:40:32.477Z,0.00
2018-12-24T01:41:32.491Z,0.00
2018-12-24T01:42:33.514Z,0.00
2018-12-24T01:43:32.448Z,0.00
2018-12-24T01:44:32.435Z,0.00
2018-12-24T01:45:32.426Z,0.00
2018-12-24T01:46:32.412Z,0.00
2018-12-24T01:47:32.418Z,0.00
2018-12-24T01:48:32.406Z,0.00
2018-12-24T01:49:32.383Z,0.00
2018-12-24T01:50:32.378Z,0.00
2018-12-24T01:51:32.378Z,0.00
2018-12-24T01:52:32.366Z,0.00
2018-12-24T01:53:32.342Z,0.00
2018-12-24T01:54:32.334Z,0.00
2018-12-24T01:55:32.320Z,0.00
2018-12-24T01:56:32.312Z,0.00
2018-12-24T01:57:32.311Z,0.00
2018-12-24T01:58:32.308Z,0.00
2018-12-24T01:59:32.275Z,0.00
2018-12-24T02:00:33.153Z,0.00
2018-12-24T02:01:32.254Z,0.00
2018-12-24T02:02:32.245Z,0.00
2018-12-24T02:03:32.254Z,0.00
2018-12-24T02:04:32.250Z,0.00
2018-12-24T02:05:32.211Z,0.00
2018-12-24T02:06:32.206Z,0.00
2018-12-24T02:07:32.198Z,0.00
2018-12-24T02:08:32.199Z,0.00
2018-12-24T02:09:32.167Z,0.00
2018-12-24T02:10:32.155Z,0.00
2018-12-24T02:11:32.151Z,0.00
2018-12-24T02:12:32.171Z,0.00
2018-12-24T02:13:32.131Z,0.00
2018-12-24T02:14:32.113Z,0.00
2018-12-24T02:15:32.102Z,0.00
2018-12-24T02:16:32.101Z,0.00
2018-12-24T02:17:32.142Z,0.00
2018-12-24T02:18:32.071Z,0.00
2018-12-24T02:19:32.061Z,0.00
2018-12-24T02:20:32.074Z,0.00
2018-12-24T02:21:32.070Z,0.00
2018-12-24T02:22:32.030Z,0.00
2018-12-24T02:23:32.016Z,0.00
2018-12-24T02:24:32.566Z,0.00
2018-12-24T02:25:31.998Z,0.00
2018-12-24T02:26:31.990Z,0.00
2018-12-24T02:27:32.000Z,0.00
2018-12-24T02:28:32.037Z,0.00
2018-12-24T02:29:31.953Z,0.00
2018-12-24T02:30:31.946Z,0.00
2018-12-24T02:31:31.944Z,0.00
2018-12-24T02:32:31.922Z,0.00
2018-12-24T02:33:31.929Z,0.00
2018-12-24T02:34:31.931Z,0.00
2018-12-24T02:35:31.891Z,0.00
2018-12-24T02:36:31.884Z,0.00
2018-12-24T02:37:31.911Z,0.00
2018-12-24T02:38:31.882Z,0.00
2018-12-24T02:39:31.852Z,0.00
2018-12-24T02:40:31.852Z,0.00
2018-12-24T02:41:31.832Z,0.00
2018-12-24T02:42:31.818Z,0.00
2018-12-24T02:43:31.804Z,0.00
2018-12-24T02:44:31.807Z,0.00
2018-12-24T02:45:31.797Z,0.00
2018-12-24T02:46:31.773Z,0.00
2018-12-24T02:47:31.765Z,0.00
2018-12-24T02:48:31.779Z,0.00
2018-12-24T02:49:31.737Z,0.00
2018-12-24T02:50:31.741Z,0.00
2018-12-24T02:51:31.716Z,0.00
2018-12-24T02:52:31.723Z,0.00
2018-12-24T02:53:31.733Z,0.00
2018-12-24T02:54:31.692Z,0.00
2018-12-24T02:55:31.679Z,0.00
2018-12-24T02:56:31.661Z,0.00
2018-12-24T02:57:31.664Z,0.00
2018-12-24T02:58:31.656Z,0.00
2018-12-24T02:59:31.704Z,0.00
2018-12-24T03:00:31.682Z,0.00
2018-12-24T03:01:31.631Z,0.00
2018-12-24T03:02:31.624Z,0.00
2018-12-24T03:03:31.589Z,0.00
2018-12-24T03:04:31.601Z,0.00
2018-12-24T03:05:31.573Z,0.00
2018-12-24T03:06:31.571Z,0.00
2018-12-24T03:07:31.589Z,0.00
2018-12-24T03:08:31.544Z,0.00
2018-12-24T03:09:31.570Z,0.00
2018-12-24T03:10:31.521Z,0.00
2018-12-24T03:11:31.507Z,0.00
2018-12-24T03:12:31.511Z,0.00
2018-12-24T03:13:31.482Z,0.00
2018-12-24T03:14:31.471Z,0.00
2018-12-24T03:15:31.494Z,0.00
2018-12-24T03:16:31.457Z,0.00
2018-12-24T03:17:31.445Z,0.00
2018-12-24T03:18:31.444Z,0.00
2018-12-24T03:19:31.422Z,0.00
2018-12-24T03:20:31.434Z,0.00
2018-12-24T03:21:31.431Z,0.00
2018-12-24T03:22:31.389Z,0.00
2018-12-24T03:23:31.376Z,0.00
2018-12-24T03:24:31.394Z,0.00
2018-12-24T03:25:31.361Z,0.00
2018-12-24T03:26:31.438Z,0.00
2018-12-24T03:27:31.366Z,0.00
2018-12-24T03:28:31.321Z,0.00
2018-12-24T03:29:31.334Z,0.00
2018-12-24T03:30:31.323Z,0.00
2018-12-24T03:31:31.308Z,0.00
2018-12-24T03:32:31.308Z,0.00
2018-12-24T03:33:31.292Z,0.00
2018-12-24T03:34:31.259Z,0.00
2018-12-24T03:35:31.252Z,0.00
2018-12-24T03:36:31.241Z,0.00
2018-12-24T03:37:31.232Z,0.00
2018-12-24T03:38:31.247Z,0.00
2018-12-24T03:39:31.234Z,0.00
2018-12-24T03:40:31.210Z,0.00
2018-12-24T03:41:31.197Z,0.00
2018-12-24T03:42:31.176Z,0.00
2018-12-24T03:43:31.168Z,0.00
2018-12-24T03:44:31.189Z,0.00
2018-12-24T03:45:31.140Z,0.00
2018-12-24T03:46:31.175Z,0.00
2018-12-24T03:47:31.126Z,0.00
2018-12-24T03:48:31.135Z,0.00
2018-12-24T03:49:31.135Z,0.00
2018-12-24T03:50:31.108Z,0.00
2018-12-24T03:51:31.082Z,0.00
2018-12-24T03:52:31.086Z,0.00
2018-12-24T03:53:31.072Z,0.00
2018-12-24T03:54:31.068Z,0.00
2018-12-24T03:55:31.056Z,0.00
2018-12-24T03:56:31.028Z,0.00
2018-12-24T03:57:31.024Z,0.00
2018-12-24T03:58:31.006Z,0.00
2018-12-24T03:59:30.997Z,0.00
2018-12-24T04:00:31.011Z,0.00
2018-12-24T04:01:31.017Z,0.00
2018-12-24T04:02:31.010Z,0.00
2018-12-24T04:03:30.954Z,0.00
2018-12-24T04:04:30.950Z,0.00
2018-12-24T04:05:30.950Z,0.00
2018-12-24T04:06:30.931Z,0.00
2018-12-24T04:07:30.910Z,0.00
2018-12-24T04:08:30.947Z,0.00
2018-12-24T04:09:30.922Z,0.00
2018-12-24T04:10:30.897Z,0.00
2018-12-24T04:11:30.872Z,0.00
2018-12-24T04:12:30.931Z,0.00
2018-12-24T04:13:30.842Z,0.00
2018-12-24T04:14:30.845Z,0.00
2018-12-24T04:15:30.823Z,0.00
2018-12-24T04:16:30.821Z,0.00
2018-12-24T04:17:30.821Z,0.00
2018-12-24T04:18:30.793Z,0.00
2018-12-24T04:19:30.831Z,0.00
2018-12-24T04:20:30.773Z,0.00
2018-12-24T04:21:30.777Z,0.00
2018-12-24T04:22:30.780Z,0.00
2018-12-24T04:23:30.766Z,0.00
2018-12-24T04:24:30.738Z,0.00
2018-12-24T04:25:30.770Z,0.00
2018-12-24T04:26:30.706Z,0.00
2018-12-24T04:27:30.697Z,0.00
2018-12-24T04:28:30.682Z,0.00
2018-12-24T04:29:30.699Z,0.00
2018-12-24T04:30:30.723Z,0.00
2018-12-24T04:31:30.703Z,0.00
2018-12-24T04:32:30.643Z,0.00
2018-12-24T04:33:30.646Z,0.00
2018-12-24T04:34:30.640Z,0.00
2018-12-24T04:35:30.611Z,0.00
2018-12-24T04:36:30.615Z,0.00
2018-12-24T04:37:30.642Z,0.00
2018-12-24T04:38:30.577Z,0.00
2018-12-24T04:39:30.592Z,0.00
2018-12-24T04:40:30.579Z,0.00
2018-12-24T04:41:30.561Z,0.00
2018-12-24T04:42:30.536Z,0.00
2018-12-24T04:43:32.351Z,0.00
2018-12-24T04:44:30.523Z,0.00
2018-12-24T04:45:30.531Z,0.00
2018-12-24T04:46:30.511Z,0.00
2018-12-24T04:47:30.499Z,0.00
2018-12-24T04:48:30.512Z,0.00
2018-12-24T04:49:30.456Z,0.00
2018-12-24T04:50:30.455Z,0.00
2018-12-24T04:51:30.463Z,0.00
2018-12-24T04:52:30.467Z,0.00
2018-12-24T04:53:30.423Z,0.00
2018-12-24T04:54:30.417Z,0.00
2018-12-24T04:55:30.398Z,0.00
2018-12-24T04:56:30.412Z,0.00
2018-12-24T04:57:30.372Z,0.00
2018-12-24T04:58:30.388Z,0.00
2018-12-24T04:59:30.376Z,0.00
2018-12-24T05:00:30.339Z,0.00
2018-12-24T05:01:30.340Z,0.00
2018-12-24T05:02:30.325Z,0.00
2018-12-24T05:03:30.310Z,0.00
2018-12-24T05:04:30.457Z,0.00
2018-12-24T05:05:30.352Z,0.00
2018-12-24T05:06:30.301Z,0.00
2018-12-24T05:07:30.285Z,0.00
2018-12-24T05:08:30.302Z,0.00
2018-12-24T05:09:30.245Z,0.00
2018-12-24T05:10:30.235Z,0.00
2018-12-24T05:11:30.229Z,0.00
2018-12-24T05:12:30.216Z,0.00
2018-12-24T05:13:30.203Z,0.00
2018-12-24T05:14:30.208Z,0.00
2018-12-24T05:15:30.178Z,0.00
2018-12-24T05:16:30.187Z,0.00
2018-12-24T05:17:30.164Z,0.00
2018-12-24T05:18:30.156Z,0.00
2018-12-24T05:19:30.155Z,0.00
2018-12-24T05:20:30.128Z,0.00
2018-12-24T05:21:30.150Z,0.00
2018-12-24T05:22:30.195Z,0.00
2018-12-24T05:23:30.106Z,0.00
2018-12-24T05:24:30.088Z,0.00
2018-12-24T05:25:30.074Z,0.00
2018-12-24T05:26:30.061Z,0.00
2018-12-24T05:27:30.070Z,0.00
2018-12-24T05:28:30.043Z,0.00
2018-12-24T05:29:30.036Z,0.00
2018-12-24T05:30:30.045Z,0.00
2018-12-24T05:31:30.059Z,0.00
2018-12-24T05:32:30.003Z,0.00
2018-12-24T05:33:30.000Z,0.00
2018-12-24T05:34:29.980Z,0.00
2018-12-24T05:35:29.992Z,0.00
2018-12-24T05:36:29.977Z,0.00
2018-12-24T05:37:29.974Z,0.00
2018-12-24T05:38:29.942Z,0.00
2018-12-24T05:39:29.929Z,0.00
2018-12-24T05:40:29.914Z,0.00
2018-12-24T05:41:29.908Z,0.00
2018-12-24T05:42:29.898Z,0.00
2018-12-24T05:43:29.914Z,0.00
2018-12-24T05:44:29.878Z,0.00
2018-12-24T05:45:29.867Z,0.00
2018-12-24T05:46:29.858Z,0.00
2018-12-24T05:47:29.842Z,0.00
2018-12-24T05:48:29.830Z,0.00
2018-12-24T05:49:29.848Z,0.00
2018-12-24T05:50:29.811Z,0.00
2018-12-24T05:51:29.801Z,0.00
2018-12-24T05:52:29.790Z,0.00
2018-12-24T05:53:29.780Z,0.00
2018-12-24T05:54:30.542Z,0.00
2018-12-24T05:55:29.796Z,0.00
2018-12-24T05:56:29.748Z,0.00
2018-12-24T05:57:29.755Z,0.00
2018-12-24T05:58:29.725Z,0.00
2018-12-24T05:59:29.712Z,0.00
2018-12-24T06:00:29.722Z,0.00
2018-12-24T06:01:29.701Z,0.00
2018-12-24T06:02:29.711Z,0.00
2018-12-24T06:03:29.674Z,0.00
2018-12-24T06:04:29.671Z,0.00
2018-12-24T06:05:29.649Z,0.00
2018-12-24T06:06:29.637Z,0.00
2018-12-24T06:07:29.679Z,0.00
2018-12-24T06:08:29.620Z,0.00
2018-12-24T06:09:29.608Z,0.00
2018-12-24T06:10:29.595Z,0.00
2018-12-24T06:11:29.584Z,0.00
2018-12-24T06:12:29.604Z,0.00
2018-12-24T06:13:29.584Z,0.00
2018-12-24T06:14:29.558Z,0.00
2018-12-24T06:15:29.557Z,0.00
2018-12-24T06:16:29.537Z,0.00
2018-12-24T06:17:29.564Z,0.00
2018-12-24T06:18:29.523Z,0.00
2018-12-24T06:19:29.522Z,0.00
2018-12-24T06:20:37.486Z,0.00
2018-12-24T06:21:30.494Z,0.00
2018-12-24T06:22:29.480Z,0.00
2018-12-24T06:23:29.533Z,0.00
2018-12-24T06:24:29.459Z,0.00
2018-12-24T06:25:29.440Z,0.00
2018-12-24T06:26:29.453Z,0.00
2018-12-24T06:27:29.444Z,0.00
2018-12-24T06:28:29.424Z,0.00
2018-12-24T06:29:29.413Z,0.00
2018-12-24T06:30:29.383Z,0.00
2018-12-24T06:31:29.394Z,0.00
2018-12-24T06:32:29.387Z,0.00
2018-12-24T06:33:29.480Z,0.00
2018-12-24T06:34:29.368Z,0.00
2018-12-24T06:35:29.339Z,0.00
2018-12-24T06:36:29.336Z,0.00
2018-12-24T06:37:29.332Z,0.00
2018-12-24T06:38:29.313Z,0.00
2018-12-24T06:39:29.322Z,0.00
2018-12-24T06:40:29.282Z,0.00
2018-12-24T06:41:29.546Z,0.00
2018-12-24T06:42:29.255Z,0.00
2018-12-24T06:43:29.271Z,0.00
2018-12-24T06:44:29.237Z,0.00
2018-12-24T06:45:29.230Z,0.00
2018-12-24T06:46:29.222Z,0.00
2018-12-24T06:47:29.211Z,0.00
2018-12-24T06:48:29.264Z,0.00
2018-12-24T06:49:29.224Z,0.00
2018-12-24T06:50:29.169Z,0.00
2018-12-24T06:51:29.159Z,0.00
2018-12-24T06:52:29.183Z,0.00
2018-12-24T06:53:29.239Z,0.00
2018-12-24T06:54:29.165Z,0.00
2018-12-24T06:55:29.124Z,0.00
2018-12-24T06:56:29.115Z,0.00
2018-12-24T06:57:29.099Z,0.00
2018-12-24T06:58:29.092Z,0.00
2018-12-24T06:59:29.117Z,0.00
2018-12-24T07:00:29.067Z,4.00
2018-12-24T07:01:29.057Z,4.00
2018-12-24T07:02:29.061Z,4.00
2018-12-24T07:03:29.029Z,4.00
2018-12-24T07:04:29.039Z,4.00
2018-12-24T07:05:29.018Z,4.00
2018-12-24T07:06:29.014Z,8.00
2018-12-24T07:07:28.994Z,8.00
2018-12-24T07:08:29.030Z,12.00
2018-12-24T07:09:28.988Z,12.00
2018-12-24T07:10:28.955Z,12.00
2018-12-24T07:11:28.954Z,16.00
2018-12-24T07:12:31.040Z,12.00
2018-12-24T07:13:28.926Z,20.00
2018-12-24T07:14:28.948Z,16.00
2018-12-24T07:15:28.902Z,20.00
2018-12-24T07:16:28.895Z,24.00
2018-12-24T07:17:28.916Z,24.00
2018-12-24T07:18:28.880Z,28.00
2018-12-24T07:19:28.869Z,28.00
2018-12-24T07:20:28.853Z,36.00
2018-12-24T07:21:28.887Z,40.00
2018-12-24T07:22:28.828Z,48.00
2018-12-24T07:23:28.837Z,56.00
2018-12-24T07:24:28.811Z,68.00
2018-12-24T07:25:28.828Z,68.00
2018-12-24T07:26:28.791Z,64.00
2018-12-24T07:27:28.792Z,68.00
2018-12-24T07:28:28.815Z,76.00
2018-12-24T07:29:28.811Z,84.00
2018-12-24T07:30:28.775Z,64.00
2018-12-24T07:31:28.757Z,80.00
2018-12-24T07:32:28.727Z,124.00
2018-12-24T07:33:28.717Z,136.00
2018-12-24T07:34:32.632Z,124.00
2018-12-24T07:35:28.691Z,100.00
2018-12-24T07:36:28.746Z,104.00
2018-12-24T07:37:28.705Z,100.00
2018-12-24T07:38:28.664Z,124.00
2018-12-24T07:39:28.652Z,116.00
2018-12-24T07:40:28.639Z,128.00
2018-12-24T07:41:28.631Z,120.00
2018-12-24T07:42:28.622Z,120.00
2018-12-24T07:43:28.670Z,124.00
2018-12-24T07:44:28.596Z,180.00
2018-12-24T07:45:28.584Z,216.00
2018-12-24T07:46:28.577Z,232.00
2018-12-24T07:47:28.561Z,296.00
2018-12-24T07:48:28.585Z,284.00
2018-12-24T07:49:28.636Z,280.00
2018-12-24T07:50:28.591Z,272.00
2018-12-24T07:51:28.525Z,344.00
2018-12-24T07:52:28.512Z,396.00
2018-12-24T07:53:28.498Z,364.00
2018-12-24T07:54:28.486Z,348.00
2018-12-24T07:55:28.473Z,376.00
2018-12-24T07:56:28.484Z,388.00
2018-12-24T07:57:28.485Z,408.00
2018-12-24T07:58:28.447Z,460.00
2018-12-24T07:59:28.431Z,520.00
2018-12-24T08:00:28.424Z,504.00
2018-12-24T08:01:28.462Z,412.00
2018-12-24T08:02:28.403Z,360.00
2018-12-24T08:03:28.412Z,348.00
2018-12-24T08:04:28.913Z,380.00
2018-12-24T08:05:28.368Z,404.00
2018-12-24T08:06:28.391Z,428.00
2018-12-24T08:07:28.346Z,456.00
2018-12-24T08:08:28.338Z,516.00
2018-12-24T08:09:28.353Z,588.00
2018-12-24T08:10:28.328Z,660.00
2018-12-24T08:11:28.361Z,732.00
2018-12-24T08:12:28.295Z,808.00
2018-12-24T08:13:28.280Z,904.00
2018-12-24T08:14:33.036Z,964.00
2018-12-24T08:15:29.261Z,1052.00
2018-12-24T08:16:28.292Z,1164.00
2018-12-24T08:17:28.251Z,1172.00
2018-12-24T08:18:28.226Z,1112.00
2018-12-24T08:19:28.263Z,1144.00
2018-12-24T08:20:28.204Z,1204.00
2018-12-24T08:21:28.194Z,1228.00
2018-12-24T08:22:28.205Z,1220.00
2018-12-24T08:23:28.181Z,1240.00
2018-12-24T08:24:28.161Z,1236.00
2018-12-24T08:25:28.151Z,1260.00
2018-12-24T08:26:28.162Z,1404.00
2018-12-24T08:27:28.129Z,1536.00
2018-12-24T08:28:28.119Z,1588.00
2018-12-24T08:29:28.107Z,1656.00
2018-12-24T08:30:28.100Z,1708.00
2018-12-24T08:31:28.101Z,1776.00
2018-12-24T08:32:28.129Z,1844.00
2018-12-24T08:33:28.072Z,2004.00
2018-12-24T08:34:28.059Z,2048.00
2018-12-24T08:35:28.046Z,1916.00
2018-12-24T08:36:28.031Z,1708.00
2018-12-24T08:37:28.048Z,1388.00
2018-12-24T08:38:28.025Z,1200.00
2018-12-24T08:39:27.998Z,1180.00
2018-12-24T08:40:27.985Z,1276.00
2018-12-24T08:41:27.980Z,1364.00
2018-12-24T08:42:27.976Z,1392.00
2018-12-24T08:43:27.976Z,1596.00
2018-12-24T08:44:27.946Z,1868.00
2018-12-24T08:45:27.934Z,1972.00
2018-12-24T08:46:27.919Z,2256.00
2018-12-24T08:47:27.943Z,2420.00
2018-12-24T08:48:27.902Z,2776.00
2018-12-24T08:49:27.890Z,2812.00
2018-12-24T08:50:27.879Z,2204.00
2018-12-24T08:51:27.887Z,1524.00
2018-12-24T08:52:27.981Z,1516.00
2018-12-24T08:53:27.925Z,1788.00
2018-12-24T08:54:27.841Z,1972.00
2018-12-24T08:55:27.833Z,2352.00
2018-12-24T08:56:29.238Z,2852.00
2018-12-24T08:57:27.819Z,3148.00
2018-12-24T08:58:27.814Z,3160.00
2018-12-24T08:59:27.780Z,3084.00
2018-12-24T09:00:27.769Z,3192.00
2018-12-24T09:01:27.763Z,3004.00
2018-12-24T09:02:27.754Z,2632.00
2018-12-24T09:03:27.735Z,2672.00
2018-12-24T09:04:27.745Z,2988.00
2018-12-24T09:05:27.721Z,2740.00
2018-12-24T09:06:27.710Z,2972.00
2018-12-24T09:07:27.717Z,3024.00
2018-12-24T09:08:27.686Z,2664.00
2018-12-24T09:09:27.676Z,2836.00
2018-12-24T09:10:27.686Z,2980.00
2018-12-24T09:11:27.648Z,3284.00
2018-12-24T09:12:28.619Z,3568.00
2018-12-24T09:13:27.664Z,3064.00
2018-12-24T09:14:27.684Z,2888.00
2018-12-24T09:15:27.619Z,3220.00
2018-12-24T09:16:27.623Z,3444.00
2018-12-24T09:17:27.609Z,2752.00
2018-12-24T09:18:27.572Z,2592.00
2018-12-24T09:19:27.573Z,2400.00
2018-12-24T09:20:27.562Z,2376.00
2018-12-24T09:21:27.543Z,2368.00
2018-12-24T09:22:27.531Z,2360.00
2018-12-24T09:23:27.544Z,2376.00
2018-12-24T09:24:27.509Z,2420.00
2018-12-24T09:25:27.501Z,2464.00
2018-12-24T09:26:27.494Z,2512.00
2018-12-24T09:27:27.480Z,2796.00
2018-12-24T09:28:27.479Z,2792.00
2018-12-24T09:29:27.472Z,2788.00
2018-12-24T09:30:27.447Z,2800.00
2018-12-24T09:31:27.436Z,2816.00
2018-12-24T09:32:27.420Z,2812.00
2018-12-24T09:33:27.437Z,2808.00
2018-12-24T09:34:27.462Z,2828.00
2018-12-24T09:35:27.436Z,2848.00
2018-12-24T09:36:27.377Z,2868.00
2018-12-24T09:37:27.376Z,2872.00
2018-12-24T09:38:27.360Z,2892.00
2018-12-24T09:39:27.369Z,2868.00
2018-12-24T09:40:27.341Z,2916.00
2018-12-24T09:41:27.327Z,2924.00
2018-12-24T09:42:27.327Z,2944.00
2018-12-24T09:43:27.304Z,2936.00
2018-12-24T09:44:27.318Z,2936.00
2018-12-24T09:45:27.306Z,3068.00
2018-12-24T09:46:27.277Z,3152.00
2018-12-24T09:47:27.263Z,2816.00
2018-12-24T09:48:27.272Z,2788.00
2018-12-24T09:49:27.236Z,3228.00
2018-12-24T09:50:27.236Z,3260.00
2018-12-24T09:51:27.236Z,3376.00
2018-12-24T09:52:27.212Z,3400.00
2018-12-24T09:53:27.228Z,3244.00
2018-12-24T09:54:27.204Z,4572.00
2018-12-24T09:55:27.230Z,4996.00
2018-12-24T09:56:27.217Z,3856.00
2018-12-24T09:57:27.169Z,3752.00
2018-12-24T09:58:27.148Z,4960.00
2018-12-24T09:59:27.152Z,4732.00
2018-12-24T10:00:27.139Z,5636.00
2018-12-24T10:01:27.106Z,5376.00
2018-12-24T10:02:27.099Z,4360.00
2018-12-24T10:03:27.087Z,4544.00
2018-12-24T10:04:27.098Z,4964.00
2018-12-24T10:05:27.071Z,6356.00
2018-12-24T10:06:27.058Z,6740.00
2018-12-24T10:07:27.044Z,7160.00
2018-12-24T10:08:27.046Z,5824.00
2018-12-24T10:09:27.028Z,4096.00
2018-12-24T10:10:27.037Z,4088.00
2018-12-24T10:11:27.016Z,5920.00
2018-12-24T10:12:26.995Z,7344.00
2018-12-24T10:13:26.983Z,4700.00
2018-12-24T10:14:26.986Z,5076.00
2018-12-24T10:15:26.963Z,5080.00
2018-12-24T10:16:27.024Z,4640.00
2018-12-24T10:17:26.996Z,6140.00
2018-12-24T10:18:26.929Z,6748.00
2018-12-24T10:19:26.929Z,5928.00
2018-12-24T10:20:26.920Z,6760.00
2018-12-24T10:21:26.907Z,6232.00
2018-12-24T10:22:26.918Z,5836.00
2018-12-24T10:23:26.910Z,4820.00
2018-12-24T10:24:26.868Z,5944.00
2018-12-24T10:25:26.859Z,7176.00
2018-12-24T10:26:26.867Z,8584.00
2018-12-24T10:27:26.837Z,7460.00
2018-12-24T10:28:27.619Z,5608.00
2018-12-24T10:29:26.858Z,7532.00
2018-12-24T10:30:26.819Z,6356.00
2018-12-24T10:31:26.793Z,4208.00
2018-12-24T10:32:26.794Z,5984.00
2018-12-24T10:33:26.781Z,4876.00
2018-12-24T10:34:26.798Z,3784.00
2018-12-24T10:35:26.761Z,3380.00
2018-12-24T10:36:26.733Z,4108.00
2018-12-24T10:37:26.773Z,3780.00
2018-12-24T10:38:26.797Z,3808.00
2018-12-24T10:39:26.707Z,4236.00
2018-12-24T10:40:26.720Z,4504.00
2018-12-24T10:41:26.690Z,4564.00
2018-12-24T10:42:26.674Z,3736.00
2018-12-24T10:43:26.668Z,3852.00
2018-12-24T10:44:26.656Z,4096.00
2018-12-24T10:45:26.636Z,3756.00
2018-12-24T10:46:26.655Z,4472.00
2018-12-24T10:47:26.624Z,5408.00
2018-12-24T10:48:26.617Z,6968.00
2018-12-24T10:49:26.602Z,7812.00
2018-12-24T10:50:26.618Z,7796.00
2018-12-24T10:51:26.577Z,8820.00
2018-12-24T10:52:26.568Z,6140.00
2018-12-24T10:53:26.552Z,4228.00
2018-12-24T10:54:26.548Z,4184.00
2018-12-24T10:55:26.534Z,6396.00
2018-12-24T10:56:26.571Z,9756.00
2018-12-24T10:57:26.520Z,10188.00
2018-12-24T10:58:26.501Z,8672.00
2018-12-24T10:59:26.536Z,11412.00
2018-12-24T11:00:26.543Z,10748.00
2018-12-24T11:01:26.498Z,6844.00
2018-12-24T11:02:26.462Z,8876.00
2018-12-24T11:03:26.448Z,8624.00
2018-12-24T11:04:26.463Z,3828.00
2018-12-24T11:05:26.454Z,4000.00
2018-12-24T11:06:26.414Z,4180.00
2018-12-24T11:07:26.407Z,3884.00
2018-12-24T11:08:26.394Z,4768.00
2018-12-24T11:09:26.394Z,5324.00
2018-12-24T11:10:26.375Z,5992.00
2018-12-24T11:11:26.388Z,6684.00
2018-12-24T11:12:26.351Z,7032.00
2018-12-24T11:13:26.353Z,6744.00
2018-12-24T11:14:26.354Z,6420.00
2018-12-24T11:15:26.365Z,6656.00
2018-12-24T11:16:26.327Z,8548.00
2018-12-24T11:17:26.317Z,9804.00
2018-12-24T11:18:26.295Z,8584.00
2018-12-24T11:19:26.286Z,8368.00
2018-12-24T11:20:26.323Z,6608.00
2018-12-24T11:21:26.318Z,5368.00
2018-12-24T11:22:26.247Z,7152.00
2018-12-24T11:23:26.237Z,8116.00
2018-12-24T11:24:26.295Z,6168.00
2018-12-24T11:25:26.209Z,5720.00
2018-12-24T11:26:26.222Z,8016.00
2018-12-24T11:27:26.199Z,8448.00
2018-12-24T11:28:26.187Z,6696.00
2018-12-24T11:29:26.169Z,6884.00
2018-12-24T11:30:26.212Z,6084.00
2018-12-24T11:31:26.170Z,5076.00
2018-12-24T11:32:26.134Z,5316.00
2018-12-24T11:33:26.131Z,6544.00
2018-12-24T11:34:26.117Z,7068.00
2018-12-24T11:35:26.132Z,5948.00
2018-12-24T11:36:26.098Z,5540.00
2018-12-24T11:37:26.083Z,6724.00
2018-12-24T11:38:26.078Z,6768.00
2018-12-24T11:39:26.076Z,5884.00
2018-12-24T11:40:26.047Z,4284.00
2018-12-24T11:41:26.539Z,4572.00
2018-12-24T11:42:26.193Z,5100.00
2018-12-24T11:43:26.018Z,5380.00
2018-12-24T11:44:26.008Z,5356.00
2018-12-24T11:45:33.604Z,4672.00
2018-12-24T11:46:27.012Z,4568.00
2018-12-24T11:47:25.977Z,4704.00
2018-12-24T11:48:25.971Z,4700.00
2018-12-24T11:49:25.952Z,4728.00
2018-12-24T11:50:25.943Z,4856.00
2018-12-24T11:51:25.966Z,5248.00
2018-12-24T11:52:25.939Z,5832.00
2018-12-24T11:53:25.924Z,5984.00
2018-12-24T11:54:25.903Z,6824.00
2018-12-24T11:55:25.894Z,7332.00
2018-12-24T11:56:25.887Z,9132.00
2018-12-24T11:57:25.900Z,9808.00
2018-12-24T11:58:25.891Z,7596.00
2018-12-24T11:59:25.853Z,6172.00
2018-12-24T12:00:25.843Z,5420.00
2018-12-24T12:01:25.844Z,5968.00
2018-12-24T12:02:25.836Z,6208.00
2018-12-24T12:03:25.868Z,6456.00
2018-12-24T12:04:25.795Z,6720.00
2018-12-24T12:05:25.794Z,7312.00
2018-12-24T12:06:25.792Z,7872.00
2018-12-24T12:07:25.764Z,7100.00
2018-12-24T12:08:25.877Z,6120.00
2018-12-24T12:09:25.740Z,5880.00
2018-12-24T12:10:25.730Z,6592.00
2018-12-24T12:11:25.719Z,6036.00
2018-12-24T12:12:25.748Z,5256.00
2018-12-24T12:13:25.749Z,6764.00
2018-12-24T12:14:25.714Z,8144.00
2018-12-24T12:15:25.689Z,10256.00
2018-12-24T12:16:25.680Z,8304.00
2018-12-24T12:17:25.658Z,6088.00
2018-12-24T12:18:25.646Z,5920.00
2018-12-24T12:19:25.636Z,6224.00
2018-12-24T12:20:25.646Z,6456.00
2018-12-24T12:21:25.608Z,6636.00
2018-12-24T12:22:25.605Z,6688.00
2018-12-24T12:23:25.633Z,6540.00
2018-12-24T12:24:25.632Z,6588.00
2018-12-24T12:25:25.590Z,7836.00
2018-12-24T12:26:25.563Z,9552.00
2018-12-24T12:27:25.570Z,8064.00
2018-12-24T12:28:25.540Z,5600.00
2018-12-24T12:29:25.541Z,3972.00
2018-12-24T12:30:25.519Z,3904.00
2018-12-24T12:31:25.555Z,4776.00
2018-12-24T12:32:25.516Z,5704.00
2018-12-24T12:33:25.481Z,6268.00
2018-12-24T12:34:25.475Z,6640.00
2018-12-24T12:35:25.461Z,8084.00
2018-12-24T12:36:25.466Z,9220.00
2018-12-24T12:37:25.444Z,7940.00
2018-12-24T12:38:29.734Z,7180.00
2018-12-24T12:39:25.420Z,7080.00
2018-12-24T12:40:25.433Z,5704.00
2018-12-24T12:41:25.412Z,4128.00
2018-12-24T12:42:25.406Z,3700.00
2018-12-24T12:43:25.375Z,3840.00
2018-12-24T12:44:25.423Z,4140.00
2018-12-24T12:45:25.415Z,5100.00
2018-12-24T12:46:25.369Z,6728.00
2018-12-24T12:47:25.349Z,7752.00